Time;durP1;ratioP1;P1;durP2;ratioP2;P2;SDS_P1;SDS_P2;PMS_P1;PMS_P2;Temp;Humidity;BMP_temperature;BMP_pressure;BME280_temperature;BME280_humidity;BME280_pressure;Samples;Min_cycle;Max_cycle;Signal;HPM_P1;HPM_P2
2022/01/20 00:01:39;;;;;;;0.77;0.70;;;6.80;99.90;;;;;;6160767;23;20285;-92
2022/01/20 00:03:34;;;;;;;0.30;0.30;;;6.80;99.90;;;;;;6191731;23;20192;-92
2022/01/20 00:27:26;;;;;;;0.23;0.23;;;7.10;99.90;;;;;;6209835;23;20224;-92
2022/01/20 00:37:37;;;;;;;0.60;0.60;;;6.70;99.90;;;;;;6209832;23;20202;-93
2022/01/20 00:40:04;;;;;;;0.30;0.30;;;6.70;99.90;;;;;;6185522;23;20182;-93
2022/01/20 00:42:29;;;;;;;0.30;0.30;;;6.70;99.90;;;;;;6209617;23;20197;-93
2022/01/20 00:44:56;;;;;;;0.30;0.30;;;6.80;99.90;;;;;;6184523;23;20189;-92
2022/01/20 00:47:22;;;;;;;1.13;0.67;;;6.80;99.90;;;;;;6184598;23;20206;-93
2022/01/20 00:49:49;;;;;;;0.53;0.53;;;6.80;99.90;;;;;;6185356;23;20198;-93
2022/01/20 00:52:16;;;;;;;0.23;0.20;;;6.80;99.90;;;;;;6184855;23;20154;-94
2022/01/20 00:54:41;;;;;;;0.30;0.30;;;6.90;99.90;;;;;;6184295;23;20154;-93
2022/01/20 00:57:07;;;;;;;0.30;0.30;;;6.90;99.90;;;;;;6184375;23;20209;-93
2022/01/20 00:59:34;;;;;;;0.20;0.20;;;6.90;99.90;;;;;;6184143;23;20291;-94
2022/01/20 01:02:05;;;;;;;0.20;0.20;;;6.90;99.90;;;;;;6209720;23;20206;-93
2022/01/20 01:04:31;;;;;;;0.77;0.73;;;7.00;99.90;;;;;;6210709;23;20193;-92
2022/01/20 01:09:47;;;;;;;0.87;0.87;;;7.00;99.90;;;;;;6221357;23;20185;-92
2022/01/20 01:12:19;;;;;;;0.97;0.37;;;6.80;99.90;;;;;;6193015;23;20229;-94
2022/01/20 01:14:49;;;;;;;0.23;0.20;;;6.70;99.90;;;;;;6191840;23;20930;-93
2022/01/20 01:22:29;;;;;;;0.20;0.20;;;6.70;99.90;;;;;;6214212;23;20201;-93
2022/01/20 01:24:56;;;;;;;0.20;0.20;;;6.70;99.90;;;;;;6190802;23;20201;-94
2022/01/20 01:27:24;;;;;;;8.60;2.43;;;6.80;99.90;;;;;;6211937;23;20205;-91
2022/01/20 01:32:47;;;;;;;3.13;1.23;;;6.90;99.90;;;;;;6211207;23;20193;-93
2022/01/20 01:35:15;;;;;;;0.47;0.40;;;6.90;99.90;;;;;;6209575;23;20200;-92
2022/01/20 01:40:11;;;;;;;0.47;0.33;;;7.00;99.90;;;;;;6211885;23;20220;-91
2022/01/20 01:42:50;;;;;;;0.57;0.57;;;6.90;99.90;;;;;;6213454;23;20154;-93
2022/01/20 01:45:16;;;;;;;0.73;0.53;;;6.60;99.90;;;;;;6200187;23;20688;-91
2022/01/20 01:47:44;;;;;;;0.20;0.20;;;6.60;99.90;;;;;;6214018;23;20213;-90
2022/01/20 01:50:29;;;;;;;2.57;0.60;;;6.60;99.90;;;;;;6195734;23;20545;-92
2022/01/20 01:52:57;;;;;;;1.23;1.00;;;6.60;99.90;;;;;;6165671;23;20256;-93
2022/01/20 01:55:23;;;;;;;2.20;2.00;;;6.70;99.90;;;;;;6189259;23;20576;-93
2022/01/20 01:57:50;;;;;;;0.67;0.53;;;6.70;99.90;;;;;;6210335;23;20209;-94
2022/01/20 02:00:19;;;;;;;0.30;0.30;;;6.80;99.90;;;;;;6187304;23;20725;-93
2022/01/20 02:02:45;;;;;;;1.43;0.80;;;6.80;99.90;;;;;;6212522;23;20198;-91
2022/01/20 02:05:14;;;;;;;0.30;0.30;;;6.80;99.90;;;;;;6210945;23;20194;-93
2022/01/20 02:18:43;;;;;;;0.53;0.53;;;6.70;99.90;;;;;;6220248;23;20198;-92
2022/01/20 02:21:09;;;;;;;0.60;0.60;;;6.80;99.90;;;;;;6216696;23;20193;-93
2022/01/20 02:23:36;;;;;;;0.83;0.83;;;6.90;99.90;;;;;;6216167;23;20193;-92
2022/01/20 02:26:03;;;;;;;1.47;1.47;;;6.90;99.90;;;;;;6189384;23;20241;-92
2022/01/20 02:28:29;;;;;;;3.20;2.20;;;6.90;99.90;;;;;;6215914;23;20181;-94
2022/01/20 02:30:56;;;;;;;2.03;0.87;;;7.00;99.90;;;;;;6218223;23;20158;-91
2022/01/20 02:33:25;;;;;;;0.93;0.50;;;6.90;99.90;;;;;;6215721;23;20691;-91
2022/01/20 02:36:11;;;;;;;1.53;1.43;;;7.00;99.90;;;;;;6214966;23;20257;-92
2022/01/20 02:38:43;;;;;;;0.53;0.53;;;6.90;99.90;;;;;;6213930;23;20229;-92
2022/01/20 02:46:39;;;;;;;0.90;0.80;;;6.60;99.90;;;;;;6212555;23;20194;-91
2022/01/20 02:49:07;;;;;;;1.97;1.90;;;6.70;99.90;;;;;;6187651;23;20154;-92
2022/01/20 02:51:34;;;;;;;8.93;3.60;;;6.60;99.90;;;;;;6162304;23;20623;-90
2022/01/20 02:54:00;;;;;;;0.77;0.77;;;6.50;99.90;;;;;;6185638;23;20204;-91
2022/01/20 02:56:26;;;;;;;4.40;1.10;;;6.50;99.90;;;;;;6211107;23;20683;-92
2022/01/20 02:58:52;;;;;;;1.07;0.97;;;6.40;99.90;;;;;;6185479;23;20272;-92
2022/01/20 03:01:18;;;;;;;0.57;0.43;;;6.40;99.90;;;;;;6184730;23;20162;-93
2022/01/20 03:03:44;;;;;;;1.23;1.17;;;6.50;99.90;;;;;;6160687;23;20231;-90
2022/01/20 03:06:10;;;;;;;0.70;0.70;;;6.40;99.90;;;;;;6158416;23;20224;-92
2022/01/20 03:08:36;;;;;;;0.40;0.40;;;6.30;99.90;;;;;;6208298;23;20285;-92
2022/01/20 03:11:02;;;;;;;0.20;0.20;;;6.40;99.90;;;;;;6158438;23;20204;-93
2022/01/20 03:13:30;;;;;;;0.57;0.57;;;6.20;99.90;;;;;;6159084;23;20205;-93
2022/01/20 03:15:56;;;;;;;0.30;0.30;;;6.20;99.90;;;;;;6184051;23;20158;-93
2022/01/20 03:18:22;;;;;;;1.03;0.70;;;6.30;99.90;;;;;;6182440;23;20257;-93
2022/01/20 03:20:47;;;;;;;1.73;0.93;;;6.20;99.90;;;;;;6158380;23;20198;-90
2022/01/20 03:23:13;;;;;;;1.20;1.20;;;6.30;99.90;;;;;;6182820;23;20204;-92
2022/01/20 03:25:42;;;;;;;0.20;0.20;;;6.20;99.90;;;;;;6158954;23;20276;-92
2022/01/20 03:28:08;;;;;;;0.83;0.60;;;6.20;99.90;;;;;;6160885;23;20162;-92
2022/01/20 03:30:34;;;;;;;0.40;0.40;;;6.20;99.90;;;;;;6170546;23;20162;-94
2022/01/20 03:33:01;;;;;;;0.33;0.33;;;6.20;99.90;;;;;;6163014;23;20221;-92
2022/01/20 03:35:28;;;;;;;1.37;0.60;;;6.10;99.90;;;;;;6169054;23;20204;-94
2022/01/20 03:37:54;;;;;;;0.20;0.20;;;6.10;99.90;;;;;;6192610;23;20206;-92
2022/01/20 03:40:23;;;;;;;0.60;0.60;;;6.00;99.90;;;;;;6165789;23;20221;-92
2022/01/20 03:42:50;;;;;;;0.37;0.37;;;6.00;99.90;;;;;;6194246;23;20181;-92
2022/01/20 03:45:16;;;;;;;0.40;0.40;;;6.00;99.90;;;;;;6194074;23;20208;-91
2022/01/20 03:47:42;;;;;;;1.07;0.50;;;6.10;99.90;;;;;;6189827;23;20205;-92
2022/01/20 03:50:59;;;;;;;0.40;0.40;;;6.10;99.90;;;;;;6188704;23;20206;-91
2022/01/20 03:52:56;;;;;;;1.20;1.10;;;6.00;99.90;;;;;;6191668;23;21143;-92
2022/01/20 03:55:22;;;;;;;1.90;1.80;;;5.90;99.90;;;;;;6179738;23;20154;-94
2022/01/20 03:57:50;;;;;;;4.00;0.70;;;5.90;99.90;;;;;;6194616;23;20620;-94
2022/01/20 04:00:20;;;;;;;1.23;0.83;;;5.80;99.90;;;;;;6168159;23;20193;-94
2022/01/20 04:02:47;;;;;;;1.33;0.30;;;5.70;99.90;;;;;;6223228;23;20204;-92
2022/01/20 04:05:14;;;;;;;0.40;0.40;;;5.60;99.90;;;;;;6193328;23;20296;-94
2022/01/20 04:07:40;;;;;;;0.47;0.47;;;5.70;99.90;;;;;;6168142;23;20573;-92
2022/01/20 04:10:06;;;;;;;2.73;1.13;;;5.80;99.90;;;;;;6166115;23;20189;-90
2022/01/20 04:12:32;;;;;;;1.80;1.13;;;5.90;99.90;;;;;;6213861;23;20154;-92
2022/01/20 04:15:05;;;;;;;1.13;1.13;;;5.60;99.90;;;;;;6213803;23;20204;-92
2022/01/20 04:17:32;;;;;;;0.30;0.30;;;4.90;99.90;;;;;;6191117;23;20198;-94
2022/01/20 04:19:59;;;;;;;1.03;0.60;;;4.70;99.90;;;;;;6189209;23;20204;-93
2022/01/20 04:22:27;;;;;;;0.93;0.70;;;4.80;99.90;;;;;;6178140;23;20162;-92
2022/01/20 04:24:54;;;;;;;0.60;0.60;;;4.80;99.90;;;;;;6236574;23;20161;-92
2022/01/20 04:27:23;;;;;;;1.07;1.07;;;4.90;99.90;;;;;;6206750;23;20232;-93
2022/01/20 04:29:50;;;;;;;0.50;0.50;;;5.00;99.90;;;;;;6192740;23;20198;-92
2022/01/20 04:32:24;;;;;;;0.50;0.50;;;5.00;99.90;;;;;;6219858;23;20714;-92
2022/01/20 04:34:52;;;;;;;0.40;0.40;;;5.10;99.90;;;;;;6222792;23;20226;-92
2022/01/20 04:37:18;;;;;;;0.47;0.47;;;5.00;99.90;;;;;;6218798;23;20155;-91
2022/01/20 04:39:49;;;;;;;0.27;0.27;;;5.30;99.90;;;;;;6218550;23;20212;-92
2022/01/20 04:42:19;;;;;;;0.60;0.60;;;5.30;99.90;;;;;;6194184;23;20200;-92
2022/01/20 04:44:52;;;;;;;0.30;0.30;;;5.40;99.90;;;;;;6219280;23;20726;-92
2022/01/20 04:58:04;;;;;;;4.50;1.33;;;5.50;99.90;;;;;;6239763;23;20189;-91
2022/01/20 05:00:30;;;;;;;0.53;0.53;;;5.70;99.90;;;;;;6197236;23;20194;-93
2022/01/20 05:03:06;;;;;;;0.40;0.40;;;5.60;99.90;;;;;;6184124;23;20194;-91
2022/01/20 05:05:33;;;;;;;0.60;0.57;;;5.60;99.90;;;;;;6220902;23;20586;-91
2022/01/20 05:08:04;;;;;;;2.17;1.27;;;5.60;99.90;;;;;;6210775;23;20204;-92
2022/01/20 05:10:33;;;;;;;1.40;1.03;;;5.70;99.90;;;;;;6168789;23;20249;-93
2022/01/20 05:13:08;;;;;;;0.30;0.30;;;5.70;99.90;;;;;;6215987;23;20161;-91
2022/01/20 05:15:34;;;;;;;1.03;0.70;;;5.10;99.90;;;;;;6216714;23;20265;-90
2022/01/20 05:18:01;;;;;;;1.63;0.80;;;4.90;99.90;;;;;;6216543;23;20252;-91
2022/01/20 05:20:31;;;;;;;0.40;0.40;;;4.90;99.90;;;;;;6208195;23;20198;-91
2022/01/20 05:22:59;;;;;;;0.80;0.80;;;4.90;99.90;;;;;;6220257;23;20537;-91
2022/01/20 05:25:25;;;;;;;0.77;0.60;;;4.90;99.90;;;;;;6211650;23;20165;-90
2022/01/20 05:27:51;;;;;;;1.60;1.33;;;4.90;99.90;;;;;;6212670;23;20154;-90
2022/01/20 05:30:24;;;;;;;0.20;0.20;;;4.90;99.90;;;;;;6211168;23;20954;-91
2022/01/20 05:32:49;;;;;;;0.40;0.40;;;4.90;99.90;;;;;;6217135;23;20206;-91
2022/01/20 05:35:17;;;;;;;0.30;0.30;;;5.00;99.90;;;;;;6186040;23;21009;-91
2022/01/20 05:37:47;;;;;;;0.70;0.40;;;5.10;99.90;;;;;;6191617;23;20202;-92
2022/01/20 05:40:13;;;;;;;2.53;0.60;;;5.00;99.90;;;;;;6211995;23;20229;-93
2022/01/20 05:42:39;;;;;;;0.30;0.30;;;5.00;99.90;;;;;;6209424;23;20154;-90
2022/01/20 05:45:07;;;;;;;1.40;1.30;;;4.80;99.90;;;;;;6208393;23;20213;-90
2022/01/20 05:47:36;;;;;;;0.40;0.40;;;4.90;99.90;;;;;;6183044;23;20241;-90
2022/01/20 05:50:03;;;;;;;0.50;0.50;;;4.90;99.90;;;;;;6208272;23;20193;-90
2022/01/20 05:52:29;;;;;;;0.40;0.40;;;4.90;99.90;;;;;;6183762;23;20198;-90
2022/01/20 05:54:54;;;;;;;0.77;0.77;;;5.00;99.90;;;;;;6183721;23;20317;-90
2022/01/20 05:57:23;;;;;;;0.50;0.50;;;5.10;99.90;;;;;;6183058;23;20197;-92
2022/01/20 05:59:49;;;;;;;2.17;0.97;;;5.20;99.90;;;;;;6208372;23;20210;-91
2022/01/20 06:02:32;;;;;;;0.50;0.50;;;5.30;99.90;;;;;;6183255;23;20198;-89
2022/01/20 06:04:58;;;;;;;0.60;0.60;;;5.40;99.90;;;;;;6166393;23;20537;-90
2022/01/20 06:07:25;;;;;;;0.70;0.70;;;5.30;99.90;;;;;;6158617;23;20174;-89
2022/01/20 06:09:51;;;;;;;0.60;0.60;;;5.30;99.90;;;;;;6160322;23;20240;-91
2022/01/20 06:12:17;;;;;;;1.37;1.37;;;5.30;99.90;;;;;;6159070;23;20194;-90
2022/01/20 06:14:42;;;;;;;4.57;0.77;;;5.20;99.90;;;;;;6208751;23;20542;-91
2022/01/20 06:17:08;;;;;;;0.50;0.50;;;5.20;99.90;;;;;;6197746;23;20200;-90
2022/01/20 06:19:37;;;;;;;0.87;0.87;;;5.30;99.90;;;;;;6207742;23;20308;-90
2022/01/20 06:22:13;;;;;;;1.50;0.77;;;5.30;99.90;;;;;;6208504;23;20562;-89
2022/01/20 06:24:40;;;;;;;3.20;0.73;;;5.30;99.90;;;;;;6161658;23;20225;-89
2022/01/20 06:27:06;;;;;;;2.37;2.20;;;5.40;99.90;;;;;;6159094;23;20205;-91
2022/01/20 06:29:32;;;;;;;2.47;0.73;;;5.30;99.90;;;;;;6159160;23;20198;-91
2022/01/20 06:31:57;;;;;;;5.77;0.70;;;5.30;99.90;;;;;;6183561;23;21146;-91
2022/01/20 06:34:30;;;;;;;1.33;1.27;;;5.40;99.90;;;;;;6184963;23;20197;-90
2022/01/20 06:36:56;;;;;;;6.70;1.03;;;5.30;99.90;;;;;;6159072;23;20172;-91
2022/01/20 06:39:22;;;;;;;0.67;0.67;;;5.10;99.90;;;;;;6182898;23;20210;-91
2022/01/20 06:41:48;;;;;;;0.50;0.50;;;4.90;99.90;;;;;;6158821;23;20190;-91
2022/01/20 06:44:14;;;;;;;0.90;0.90;;;4.50;99.90;;;;;;6182827;23;20198;-90
2022/01/20 06:46:40;;;;;;;12.23;0.93;;;4.30;99.90;;;;;;6183561;23;20297;-90
2022/01/20 06:49:10;;;;;;;0.30;0.30;;;4.20;99.90;;;;;;6183365;23;20201;-91
2022/01/20 06:51:36;;;;;;;0.50;0.50;;;4.50;99.90;;;;;;6159557;23;20169;-91
2022/01/20 06:54:03;;;;;;;3.00;0.53;;;4.50;99.90;;;;;;6207908;23;20328;-92
2022/01/20 06:56:29;;;;;;;4.93;0.43;;;4.60;99.90;;;;;;6207810;23;20774;-90
2022/01/20 06:58:55;;;;;;;1.40;0.90;;;4.60;99.90;;;;;;6182521;23;20241;-90
2022/01/20 07:01:20;;;;;;;1.13;0.60;;;4.80;99.90;;;;;;6184651;23;20182;-90
2022/01/20 07:03:46;;;;;;;0.87;0.80;;;4.90;99.90;;;;;;6159788;23;20612;-90
2022/01/20 07:06:12;;;;;;;1.70;0.90;;;5.20;99.90;;;;;;6182701;23;20194;-90
2022/01/20 07:08:38;;;;;;;4.37;0.87;;;5.30;99.90;;;;;;6158844;23;20198;-92
2022/01/20 07:11:03;;;;;;;0.90;0.90;;;5.40;99.90;;;;;;6158860;23;20655;-91
2022/01/20 07:13:29;;;;;;;1.07;0.87;;;5.40;99.90;;;;;;6158501;23;20687;-90
2022/01/20 07:15:55;;;;;;;1.00;1.00;;;5.30;99.90;;;;;;6159277;23;20161;-91
2022/01/20 07:18:21;;;;;;;1.27;0.97;;;5.30;99.90;;;;;;6157490;23;20216;-89
2022/01/20 07:20:46;;;;;;;1.10;0.93;;;5.40;99.90;;;;;;6183421;23;20532;-90
2022/01/20 07:23:16;;;;;;;0.83;0.73;;;5.30;99.90;;;;;;6183892;23;20710;-90
2022/01/20 07:25:44;;;;;;;1.50;1.13;;;5.30;99.90;;;;;;6159097;23;20196;-89
2022/01/20 07:28:10;;;;;;;4.57;1.20;;;5.20;99.90;;;;;;6184325;23;20190;-88
2022/01/20 07:30:36;;;;;;;0.83;0.60;;;5.20;99.90;;;;;;6209318;23;20165;-92
2022/01/20 07:33:05;;;;;;;0.30;0.30;;;5.10;99.90;;;;;;6183603;23;20202;-94
2022/01/20 07:35:31;;;;;;;0.50;0.50;;;5.10;99.90;;;;;;6209164;23;20225;-92
2022/01/20 07:37:57;;;;;;;0.40;0.40;;;5.20;99.90;;;;;;6185299;23;20228;-93
2022/01/20 07:40:23;;;;;;;3.30;1.00;;;5.20;99.90;;;;;;6162814;23;20659;-91
2022/01/20 07:42:50;;;;;;;2.40;1.00;;;5.30;99.90;;;;;;6186641;23;20651;-91
2022/01/20 07:45:17;;;;;;;3.27;0.73;;;5.40;99.90;;;;;;6185670;23;20631;-91
2022/01/20 07:47:46;;;;;;;2.57;1.17;;;5.20;99.90;;;;;;6186059;23;20210;-93
2022/01/20 07:50:12;;;;;;;1.07;1.07;;;5.10;99.90;;;;;;6185197;23;20534;-89
2022/01/20 07:52:38;;;;;;;43.83;2.30;;;5.00;99.90;;;;;;6159267;23;20197;-90
2022/01/20 07:55:04;;;;;;;1.60;0.50;;;5.10;99.90;;;;;;6160249;23;20173;-88
2022/01/20 07:57:30;;;;;;;8.07;1.53;;;5.00;99.90;;;;;;6159568;23;20194;-89
2022/01/20 07:59:56;;;;;;;1.13;0.60;;;5.00;99.90;;;;;;6159493;23;20214;-89
2022/01/20 08:02:21;;;;;;;0.60;0.50;;;4.90;99.90;;;;;;6159374;23;20225;-89
2022/01/20 08:04:47;;;;;;;0.63;0.63;;;4.90;99.90;;;;;;6160180;23;20296;-90
2022/01/20 08:07:13;;;;;;;0.40;0.40;;;4.90;99.90;;;;;;6184659;23;20193;-90
2022/01/20 08:09:39;;;;;;;0.40;0.40;;;4.90;99.90;;;;;;6160168;23;20186;-90
2022/01/20 08:12:06;;;;;;;1.10;0.80;;;4.90;99.90;;;;;;6185086;23;20272;-88
2022/01/20 08:14:31;;;;;;;0.80;0.80;;;5.10;99.90;;;;;;6159174;23;20198;-90
2022/01/20 08:16:57;;;;;;;0.47;0.47;;;5.30;99.90;;;;;;6183935;23;20193;-90
2022/01/20 08:19:23;;;;;;;0.80;0.80;;;5.50;99.90;;;;;;6209399;23;20189;-89
2022/01/20 08:21:49;;;;;;;0.50;0.50;;;5.70;99.90;;;;;;6160671;23;20827;-89
2022/01/20 08:24:15;;;;;;;3.13;1.07;;;5.70;99.90;;;;;;6173329;23;20197;-92
2022/01/20 08:26:41;;;;;;;1.80;0.50;;;5.60;99.90;;;;;;6159541;23;20205;-93
2022/01/20 08:29:07;;;;;;;0.40;0.40;;;5.40;99.90;;;;;;6185096;23;20204;-93
2022/01/20 08:31:33;;;;;;;0.57;0.57;;;5.30;99.90;;;;;;6160491;23;20194;-93
2022/01/20 08:33:59;;;;;;;0.70;0.60;;;5.30;99.90;;;;;;6160386;23;20163;-92
2022/01/20 08:36:25;;;;;;;3.47;0.80;;;5.10;99.90;;;;;;6185336;23;20190;-92
2022/01/20 08:38:51;;;;;;;0.30;0.30;;;4.90;99.90;;;;;;6159293;23;20635;-94
2022/01/20 08:41:17;;;;;;;1.33;0.97;;;4.80;99.90;;;;;;6187161;23;20288;-93
2022/01/20 08:43:43;;;;;;;1.37;0.40;;;4.90;99.90;;;;;;6161608;23;20289;-94
2022/01/20 08:46:11;;;;;;;1.50;0.80;;;5.00;99.90;;;;;;6159481;23;20170;-91
2022/01/20 08:48:38;;;;;;;0.80;0.80;;;5.30;99.90;;;;;;6210556;23;20714;-92
2022/01/20 08:51:06;;;;;;;0.30;0.30;;;5.40;99.90;;;;;;6187485;23;20210;-93
2022/01/20 08:53:32;;;;;;;1.57;1.47;;;5.40;99.90;;;;;;6200634;23;20761;-94
2022/01/20 08:55:59;;;;;;;1.27;0.60;;;5.60;99.90;;;;;;6210106;23;20260;-92
2022/01/20 08:58:25;;;;;;;0.30;0.30;;;5.50;99.90;;;;;;6186229;23;20228;-92
2022/01/20 09:00:52;;;;;;;2.00;0.60;;;5.50;99.90;;;;;;6187952;23;20535;-92
2022/01/20 09:03:18;;;;;;;0.30;0.30;;;5.50;99.90;;;;;;6162889;23;20272;-93
2022/01/20 09:05:43;;;;;;;3.77;0.97;;;5.50;99.90;;;;;;6185958;23;20295;-93
2022/01/20 09:08:10;;;;;;;0.57;0.50;;;5.60;99.90;;;;;;6186356;23;20205;-93
2022/01/20 09:10:42;;;;;;;1.80;0.67;;;5.60;99.90;;;;;;6185424;23;20538;-92
2022/01/20 09:15:56;;;;;;;0.93;0.60;;;5.60;99.90;;;;;;6210628;23;20594;-88
2022/01/20 09:18:24;;;;;;;0.60;0.60;;;5.70;99.90;;;;;;6184204;23;20198;-89
2022/01/20 09:20:50;;;;;;;0.73;0.73;;;5.60;99.90;;;;;;6183707;23;20202;-88
2022/01/20 09:23:16;;;;;;;0.37;0.37;;;5.60;99.90;;;;;;6208712;23;20217;-88
2022/01/20 09:25:42;;;;;;;2.20;2.10;;;5.60;99.90;;;;;;6183872;23;20190;-89
2022/01/20 09:28:09;;;;;;;1.37;0.93;;;5.70;99.90;;;;;;6208665;23;20240;-88
2022/01/20 09:30:38;;;;;;;0.37;0.37;;;5.80;99.90;;;;;;6209243;23;20158;-89
2022/01/20 09:33:25;;;;;;;2.93;1.17;;;5.90;99.90;;;;;;6210204;23;20210;-88
2022/01/20 09:35:51;;;;;;;1.30;0.60;;;5.90;99.90;;;;;;6167928;23;20643;-89
2022/01/20 09:38:17;;;;;;;0.50;0.50;;;5.80;99.90;;;;;;6183075;23;20956;-88
2022/01/20 09:40:43;;;;;;;2.10;1.10;;;5.80;99.90;;;;;;6208652;23;20202;-89
2022/01/20 09:43:14;;;;;;;0.60;0.60;;;5.80;99.90;;;;;;6183986;23;20177;-90
2022/01/20 09:45:41;;;;;;;1.93;0.97;;;5.90;99.90;;;;;;6209503;23;20139;-89
2022/01/20 09:48:09;;;;;;;1.40;0.87;;;6.20;99.90;;;;;;6183681;23;20209;-90
2022/01/20 09:50:35;;;;;;;0.60;0.60;;;6.30;99.90;;;;;;6183557;23;20208;-90
2022/01/20 09:53:01;;;;;;;4.33;1.83;;;6.30;99.90;;;;;;6183618;23;20635;-88
2022/01/20 09:55:28;;;;;;;0.50;0.50;;;6.20;99.90;;;;;;6183722;23;20198;-88
2022/01/20 09:57:54;;;;;;;0.70;0.70;;;6.10;99.90;;;;;;6184115;23;20166;-89
2022/01/20 10:00:21;;;;;;;2.70;2.50;;;6.10;99.90;;;;;;6183478;23;20267;-89
2022/01/20 10:03:06;;;;;;;0.40;0.37;;;6.10;99.90;;;;;;6182892;23;20198;-89
2022/01/20 10:05:40;;;;;;;0.67;0.63;;;6.10;99.90;;;;;;6208800;23;20260;-89
2022/01/20 10:08:21;;;;;;;0.70;0.60;;;6.20;99.90;;;;;;6209460;23;20658;-89
2022/01/20 10:10:51;;;;;;;1.23;0.90;;;6.20;99.90;;;;;;6208722;23;20201;-89
2022/01/20 10:13:24;;;;;;;0.60;0.60;;;6.20;99.90;;;;;;6208793;23;20587;-88
2022/01/20 10:16:04;;;;;;;5.63;1.40;;;6.20;99.90;;;;;;6209103;23;20568;-89
2022/01/20 10:18:31;;;;;;;0.40;0.40;;;6.10;99.90;;;;;;6207960;23;20208;-89
2022/01/20 10:21:04;;;;;;;1.40;1.07;;;6.00;99.90;;;;;;6207811;23;20228;-89
2022/01/20 10:23:33;;;;;;;6.43;0.70;;;6.00;99.90;;;;;;6207978;23;20221;-89
2022/01/20 10:26:07;;;;;;;0.57;0.50;;;6.10;99.90;;;;;;6207849;23;21018;-89
2022/01/20 10:28:48;;;;;;;1.70;1.70;;;5.90;99.90;;;;;;6209285;23;20228;-87
2022/01/20 10:31:19;;;;;;;0.40;0.40;;;5.50;99.90;;;;;;6207951;23;20162;-90
2022/01/20 10:33:46;;;;;;;0.40;0.40;;;5.40;99.90;;;;;;6185011;23;20146;-89
2022/01/20 10:36:13;;;;;;;0.40;0.40;;;5.40;99.90;;;;;;6183336;23;20635;-89
2022/01/20 10:38:55;;;;;;;0.50;0.50;;;5.40;99.90;;;;;;6182913;23;20287;-89
2022/01/20 10:41:56;;;;;;;0.67;0.53;;;5.40;99.90;;;;;;6207154;23;20202;-89
2022/01/20 10:44:21;;;;;;;0.80;0.80;;;5.60;99.90;;;;;;6208378;23;20264;-88
2022/01/20 10:46:52;;;;;;;2.80;1.97;;;5.70;99.90;;;;;;6157854;23;20589;-89
2022/01/20 10:49:21;;;;;;;0.93;0.70;;;5.80;99.90;;;;;;6183437;23;20154;-89
2022/01/20 10:52:08;;;;;;;4.60;1.17;;;5.90;99.90;;;;;;6184022;23;20166;-88
2022/01/20 10:54:45;;;;;;;0.80;0.80;;;5.90;99.90;;;;;;6208068;23;20174;-89
2022/01/20 10:57:15;;;;;;;0.20;0.20;;;5.90;99.90;;;;;;6207650;23;20201;-88
2022/01/20 10:59:53;;;;;;;1.27;0.90;;;6.00;99.90;;;;;;6183538;23;20601;-89
2022/01/20 11:02:21;;;;;;;3.73;1.07;;;6.20;99.90;;;;;;6207708;23;20208;-88
2022/01/20 11:04:48;;;;;;;2.37;1.33;;;6.40;99.90;;;;;;6207679;23;20201;-89
2022/01/20 11:07:15;;;;;;;1.30;1.30;;;5.50;99.90;;;;;;6158688;23;20194;-90
2022/01/20 11:09:44;;;;;;;2.53;1.07;;;4.80;99.90;;;;;;6183961;23;20169;-89
2022/01/20 11:12:14;;;;;;;0.40;0.40;;;4.70;99.90;;;;;;6207789;23;20194;-90
2022/01/20 11:14:41;;;;;;;15.57;1.90;;;4.90;99.90;;;;;;6207756;23;20217;-90
2022/01/20 11:17:08;;;;;;;0.20;0.20;;;5.00;99.90;;;;;;6183537;23;20194;-90
2022/01/20 11:19:36;;;;;;;1.70;0.30;;;5.20;99.90;;;;;;6183390;23;20205;-89
2022/01/20 11:22:11;;;;;;;0.60;0.60;;;5.40;99.90;;;;;;6208958;23;20216;-89
2022/01/20 11:24:39;;;;;;;1.23;0.93;;;5.60;99.90;;;;;;6208790;23;20243;-89
2022/01/20 11:27:06;;;;;;;4.03;0.57;;;5.70;99.90;;;;;;6207570;23;20198;-88
2022/01/20 11:29:41;;;;;;;1.93;0.93;;;5.80;99.90;;;;;;6159146;23;20515;-89
2022/01/20 11:32:23;;;;;;;5.30;1.07;;;5.90;99.90;;;;;;6208246;23;20229;-90
2022/01/20 11:35:08;;;;;;;1.30;0.77;;;6.00;99.90;;;;;;6208278;23;20449;-90
2022/01/20 11:37:39;;;;;;;1.97;0.73;;;6.00;99.90;;;;;;6208160;23;20195;-89
2022/01/20 11:40:11;;;;;;;2.20;0.77;;;6.10;99.90;;;;;;6208630;23;20154;-89
2022/01/20 11:42:36;;;;;;;2.23;0.77;;;6.10;99.90;;;;;;6208157;23;20189;-89
2022/01/20 11:45:28;;;;;;;2.70;0.53;;;6.20;99.90;;;;;;6183134;23;20194;-90
2022/01/20 11:47:55;;;;;;;0.47;0.40;;;6.20;99.90;;;;;;6207494;23;20210;-89
2022/01/20 11:50:22;;;;;;;2.40;0.73;;;6.20;99.90;;;;;;6158272;23;20255;-89
2022/01/20 11:52:48;;;;;;;2.47;0.60;;;6.40;99.90;;;;;;6209443;23;20538;-90
2022/01/20 11:55:16;;;;;;;4.83;1.23;;;6.30;99.90;;;;;;6183227;23;20659;-90
2022/01/20 11:57:42;;;;;;;0.30;0.30;;;6.10;99.90;;;;;;6208847;23;20361;-88
2022/01/20 12:00:27;;;;;;;4.80;3.13;;;6.00;99.90;;;;;;6183489;23;20635;-90
2022/01/20 12:02:53;;;;;;;4.97;1.37;;;6.10;99.90;;;;;;6208651;23;20243;-88
2022/01/20 12:05:30;;;;;;;0.87;0.83;;;6.30;99.90;;;;;;6183727;23;20726;-89
2022/01/20 12:08:11;;;;;;;0.70;0.70;;;6.00;99.90;;;;;;6208224;23;20209;-89
2022/01/20 12:10:38;;;;;;;0.30;0.30;;;5.30;99.90;;;;;;6208355;23;20256;-90
2022/01/20 12:13:10;;;;;;;0.40;0.40;;;5.00;99.90;;;;;;6184512;23;20166;-90
2022/01/20 12:15:47;;;;;;;0.30;0.30;;;5.20;99.90;;;;;;6182977;23;20190;-90
2022/01/20 12:18:13;;;;;;;1.20;0.90;;;5.20;99.90;;;;;;6207984;23;20197;-90
2022/01/20 12:20:39;;;;;;;0.90;0.80;;;5.30;99.90;;;;;;6183366;23;20208;-90
2022/01/20 12:23:05;;;;;;;0.50;0.50;;;5.30;99.90;;;;;;6160064;23;20198;-91
2022/01/20 12:25:33;;;;;;;0.30;0.30;;;5.40;99.90;;;;;;6184788;23;20537;-90
2022/01/20 12:28:07;;;;;;;2.63;0.70;;;5.40;99.90;;;;;;6185570;23;20162;-90
2022/01/20 12:30:36;;;;;;;0.70;0.70;;;5.40;99.90;;;;;;6186003;23;20236;-90
2022/01/20 12:33:15;;;;;;;0.30;0.30;;;5.50;99.90;;;;;;6208145;23;20218;-90
2022/01/20 12:35:43;;;;;;;0.40;0.40;;;5.70;99.90;;;;;;6209760;23;20293;-90
2022/01/20 12:38:28;;;;;;;2.73;0.57;;;5.80;99.90;;;;;;6209748;23;20284;-90
2022/01/20 12:41:11;;;;;;;1.93;1.73;;;6.00;99.90;;;;;;6209099;23;20202;-88
2022/01/20 12:43:47;;;;;;;4.80;1.10;;;6.20;99.90;;;;;;6208850;23;20659;-90
2022/01/20 12:46:18;;;;;;;0.40;0.40;;;6.30;99.90;;;;;;6209360;23;20158;-91
2022/01/20 12:48:56;;;;;;;0.50;0.50;;;6.20;99.90;;;;;;6209764;23;20206;-89
2022/01/20 12:51:32;;;;;;;0.47;0.43;;;6.10;99.90;;;;;;6209785;23;20207;-90
2022/01/20 12:54:26;;;;;;;0.93;0.93;;;6.10;99.90;;;;;;6209692;23;20201;-90
2022/01/20 12:56:53;;;;;;;0.70;0.67;;;6.20;99.90;;;;;;6210057;23;20220;-90
2022/01/20 12:59:20;;;;;;;0.90;0.90;;;6.30;99.90;;;;;;6185150;23;20224;-91
2022/01/20 13:01:48;;;;;;;0.40;0.40;;;6.30;99.90;;;;;;6220092;23;20356;-90
2022/01/20 13:04:17;;;;;;;2.23;0.40;;;6.60;99.90;;;;;;6166044;23;20166;-92
2022/01/20 13:06:55;;;;;;;0.57;0.57;;;6.80;99.90;;;;;;6210227;23;20518;-91
2022/01/20 13:09:24;;;;;;;0.20;0.20;;;6.60;99.90;;;;;;6209500;23;20200;-90
2022/01/20 13:11:59;;;;;;;0.50;0.50;;;6.10;99.90;;;;;;6160575;23;20190;-92
2022/01/20 13:14:45;;;;;;;1.27;0.70;;;5.40;99.90;;;;;;6185856;23;20208;-91
2022/01/20 13:17:23;;;;;;;0.70;0.70;;;5.40;99.90;;;;;;6209496;23;20200;-91
2022/01/20 13:19:50;;;;;;;0.40;0.40;;;5.30;99.90;;;;;;6209401;23;20260;-90
2022/01/20 13:22:43;;;;;;;2.93;0.73;;;5.10;99.90;;;;;;6209654;23;20610;-90
2022/01/20 13:25:14;;;;;;;0.20;0.20;;;5.30;99.90;;;;;;6209849;23;20143;-92
2022/01/20 13:28:03;;;;;;;1.13;0.40;;;5.40;99.90;;;;;;6209737;23;20244;-91
2022/01/20 13:30:37;;;;;;;0.50;0.50;;;5.50;99.90;;;;;;6209332;23;20792;-89
2022/01/20 13:33:04;;;;;;;0.60;0.60;;;5.50;99.90;;;;;;6209549;23;20198;-91
2022/01/20 13:35:42;;;;;;;0.30;0.30;;;5.70;99.90;;;;;;6184134;23;20644;-91
2022/01/20 13:38:08;;;;;;;0.50;0.50;;;5.90;99.90;;;;;;6185129;23;20274;-90
2022/01/20 13:40:36;;;;;;;0.40;0.40;;;6.10;99.90;;;;;;6210965;23;20581;-92
2022/01/20 13:45:40;;;;;;;1.23;1.20;;;6.50;99.90;;;;;;6211372;23;20177;-90
2022/01/20 13:48:07;;;;;;;1.57;0.67;;;6.50;99.90;;;;;;6185159;23;20212;-90
2022/01/20 13:50:41;;;;;;;0.50;0.50;;;6.40;99.90;;;;;;6210002;23;20210;-92
2022/01/20 13:53:16;;;;;;;0.30;0.30;;;6.40;99.90;;;;;;6209363;23;20198;-90
2022/01/20 13:55:47;;;;;;;0.60;0.60;;;6.60;99.90;;;;;;6209632;23;20201;-89
2022/01/20 13:58:25;;;;;;;3.30;0.50;;;6.70;99.90;;;;;;6184964;23;20237;-89
2022/01/20 14:00:53;;;;;;;3.23;1.30;;;6.50;99.90;;;;;;6209194;23;20147;-89
2022/01/20 14:03:19;;;;;;;0.77;0.70;;;6.30;99.90;;;;;;6183742;23;20194;-89
2022/01/20 14:05:45;;;;;;;1.40;0.60;;;6.10;99.90;;;;;;6159054;23;20190;-89
2022/01/20 14:08:11;;;;;;;0.90;0.90;;;6.10;99.90;;;;;;6159235;23;20510;-89
2022/01/20 14:10:37;;;;;;;0.30;0.30;;;6.10;99.90;;;;;;6208422;23;20210;-90
2022/01/20 14:13:03;;;;;;;1.33;1.00;;;6.30;99.90;;;;;;6209322;23;20683;-89
2022/01/20 14:15:29;;;;;;;5.50;1.00;;;6.30;99.90;;;;;;6208107;23;20201;-90
2022/01/20 14:17:58;;;;;;;1.33;0.60;;;6.50;99.90;;;;;;6183134;23;21100;-90
2022/01/20 14:20:27;;;;;;;0.20;0.20;;;6.50;99.90;;;;;;6208770;23;20232;-90
2022/01/20 14:22:59;;;;;;;0.40;0.40;;;6.40;99.90;;;;;;6208147;23;20198;-90